Terminal Aerodrome Forecast
Issued by NWS

Current Version | Previous Version | Graphics & Text | Print | Product List | Glossary On
Versions: 1 2 3 4 5 6 7 8 9 10 11 12 13 14 15 16 17 18 19 20 21
000
FTUS41 KILN 220530
TAFLUK
TAF
KLUK 220530Z 2206/2306 00000KT 1SM BR SCT002
      TEMPO 2206/2210 1/4SM FG VV002
     FM221200 10004KT P6SM SCT250
     FM230000 00000KT P6SM SCT200
     FM230500 00000KT 3SM BR SCT200=

USA.gov is the U.S. government's official web portal to all federal, state and local government web resources and services.